Data for 05/22/2015

Time Sea-Level Adjusted Pressure Absolute Pressure Temperature Relative Humidity Dew Point   
(mb) (inHg) (mb) (inHg) (C) (F) (%) (C) (F)
00:05 1016 30 845 24.95 9.7 49.5 66 3.8 38.8
00:10 1016 30 845 24.95 9.7 49.5 67 3.9 38.9
00:15 1016 30 845 24.95 9.6 49.3 67 3.8 38.9
00:20 1016 30 845 24.95 9.5 49.1 67 3.8 38.8
00:25 1016 30 845 24.95 9.4 49 68 3.8 38.9
00:30 1016 30 845 24.95 9.4 48.9 68 3.8 38.9
00:35 1016 30 846 24.98 9.4 48.9 68 3.9 39
00:40 1016 30 846 24.98 9.4 48.9 68 3.9 39.1
00:45 1016 30 846 24.98 9.3 48.7 69 4 39.2
00:50 1016 30 846 24.98 9.2 48.6 69 3.9 39.1
00:55 1016 30 846 24.98 9.3 48.7 69 3.9 39.1
01:00 1016 30 846 24.98 9.3 48.7 70 4.1 39.3
01:05 1017 30.03 846 24.98 9.2 48.6 71 4.2 39.6
01:10 1017 30.03 846 24.98 9.1 48.4 71 4.2 39.6
01:15 1017 30.03 846 24.98 9 48.2 71 4.2 39.5
01:20 1017 30.03 846 24.98 9 48.2 72 4.2 39.6
01:25 1017 30.03 846 24.98 8.9 48 72 4.2 39.6
01:30 1017 30.03 846 24.98 8.9 48 72 4.2 39.6
01:35 1017 30.03 846 24.98 8.8 47.8 73 4.2 39.6
01:40 1017 30.03 846 24.98 8.6 47.4 74 4.1 39.5
01:45 1017 30.03 846 24.98 8.4 47.2 74 4.2 39.5
01:50 1017 30.03 846 24.98 8.4 47 75 4.2 39.5
01:55 1017 30.03 846 24.98 8.4 47.1 75 4.2 39.6
02:00 1017 30.03 846 24.98 8.5 47.2 75 4.2 39.6
02:05 1017 30.03 846 24.98 8.5 47.3 75 4.3 39.7
02:10 1017 30.03 846 24.98 8.5 47.2 75 4.2 39.6
02:15 1017 30.03 846 24.98 8.5 47.2 75 4.3 39.7
02:20 1017 30.03 846 24.98 8.3 46.9 75 4.2 39.5
02:25 1017 30.03 846 24.98 8.1 46.7 76 4.2 39.5
02:30 1017 30.03 846 24.98 8.1 46.6 76 4.1 39.4
02:35 1017 30.03 846 24.98 8.1 46.6 77 4.3 39.7
02:40 1017 30.03 846 24.98 8 46.4 77 4.2 39.5
02:45 1017 30.03 846 24.98 7.9 46.2 77 4.2 39.6
02:50 1017 30.03 846 24.98 7.7 45.9 78 4.1 39.3
02:55 1017 30.03 846 24.98 7.7 45.8 78 4.1 39.3
03:00 1017 30.03 846 24.98 7.3 45.1 78 3.6 38.6
03:05 1017 30.03 846 24.98 6.4 43.6 80 3.2 37.8
03:10 1017 30.03 846 24.98 6.2 43.2 81 3.1 37.6
03:15 1017 30.03 846 24.98 6.1 43 82 3.2 37.7
03:20 1017 30.03 846 24.98 6.2 43.1 79 2.9 37.2
03:25 1017 30.03 846 24.98 6 42.8 80 2.8 37
03:30 1017 30.03 846 24.98 6.1 42.9 80 2.8 37.1
03:35 1017 30.03 846 24.98 6 42.9 80 2.9 37.2
03:40 1017 30.03 846 24.98 5.9 42.7 80 2.8 37.1
03:45 1017 30.03 846 24.98 6 42.8 81 2.9 37.3
03:50 1017 30.03 846 24.98 6.1 42.9 81 3.1 37.5
03:55 1017 30.03 846 24.98 6.1 43.1 81 3.2 37.7
04:00 1017 30.03 846 24.98 6.2 43.2 81 3.2 37.8
04:05 1017 30.03 846 24.98 6.1 42.9 82 3.2 37.7
04:10 1017 30.03 846 24.98 5.7 42.3 82 3 37.3
04:15 1017 30.03 846 24.98 5.7 42.3 81 2.8 37
04:20 1017 30.03 846 24.98 5.7 42.3 81 2.7 36.9
04:25 1017 30.03 846 24.98 5.7 42.3 81 2.7 36.9
04:30 1017 30.03 846 24.98 5.7 42.3 81 2.8 37
04:35 1017 30.03 846 24.98 5.8 42.4 81 2.8 37.1
04:40 1017 30.03 846 24.98 5.9 42.6 81 2.9 37.1
04:45 1017 30.03 846 24.98 6 42.7 81 2.9 37.2
04:50 1017 30.03 846 24.98 6 42.8 81 2.9 37.3
04:55 1017 30.03 846 24.98 6 42.8 81 3 37.3
05:00 1017 30.03 846 24.98 6 42.7 82 3.1 37.6
05:05 1017 30.03 846 24.98 6 42.7 82 3.1 37.6
05:10 1017 30.03 846 24.98 6.1 43 81 3 37.5
05:15 1017 30.03 846 24.98 6.4 43.6 79 3 37.4
05:20 1017 30.03 846 24.98 6.5 43.8 78 2.9 37.3
05:25 1017 30.03 846 24.98 6.6 43.9 77 2.9 37.3
05:30 1017 30.03 846 24.98 6.8 44.2 77 3 37.4
05:35 1017 30.03 846 24.98 6.8 44.2 76 2.9 37.3
05:40 1017 30.03 846 24.98 6.8 44.3 76 2.9 37.3
05:45 1017 30.03 846 24.98 7.2 44.9 73 2.7 36.8
05:50 1017 30.03 846 24.98 6.9 44.4 74 2.7 36.8
05:55 1017 30.03 846 24.98 7.1 44.9 73 2.7 36.9
06:00 1017 30.03 846 24.98 7.7 45.9 72 2.9 37.3
06:05 1017 30.03 846 24.98 7.8 46 73 3.3 37.9
06:10 1017 30.03 846 24.98 7.3 45.2 74 3.1 37.5
06:15 1017 30.03 846 24.98 7.5 45.5 74 3.2 37.7
06:20 1017 30.03 846 24.98 7.6 45.7 73 3.2 37.7
06:25 1017 30.03 846 24.98 7.7 45.9 73 3.3 37.9
06:30 1017 30.03 846 24.98 8.2 46.7 71 3.3 37.9
06:35 1017 30.03 846 24.98 8.9 48 69 3.6 38.4
06:40 1017 30.03 846 24.98 9.4 48.9 67 3.7 38.6
06:45 1017 30.03 846 24.98 9.5 49.2 67 3.8 38.8
06:50 1017 30.03 846 24.98 9.5 49.1 67 3.7 38.7
06:55 1017 30.03 846 24.98 9.8 49.6 66 3.8 38.9
07:00 1017 30.03 846 24.98 10 50.1 66 3.9 39.1
07:05 1017 30.03 846 24.98 9.9 49.8 67 4 39.2
07:10 1017 30.03 846 24.98 10.1 50.1 66 4 39.2
07:15 1017 30.03 846 24.98 10.5 50.9 65 4.2 39.6
07:20 1017 30.03 846 24.98 10.9 51.6 63 4.3 39.7
07:25 1017 30.03 846 24.98 10.9 51.6 63 4.2 39.5
07:30 1017 30.03 846 24.98 10.9 51.6 63 4.1 39.4
07:35 1017 30.03 846 24.98 11.5 52.8 60 4.2 39.5
07:40 1017 30.03 846 24.98 11.6 52.9 59 3.9 39
07:45 1017 30.03 846 24.98 11.7 53.1 60 4.2 39.6
07:50 1017 30.03 846 24.98 11.9 53.5 58 3.9 39
07:55 1017 30.03 846 24.98 12.5 54.4 55 3.8 38.8
08:00 1017 30.03 846 24.98 12.8 55 54 3.8 38.8
08:05 1017 30.03 846 24.98 12.9 55.2 54 3.9 39
08:10 1017 30.03 846 24.98 13 55.3 53 3.8 38.9
08:15 1017 30.03 846 24.98 12.8 55 53 3.5 38.2
08:20 1017 30.03 846 24.98 12.8 55.1 52 3.3 37.9
08:25 1017 30.03 846 24.98 13.5 56.2 51 3.7 38.7
08:30 1016 30 846 24.98 13.4 56.2 55 4.7 40.5
08:35 1016 30 846 24.98 13.7 56.7 52 4.2 39.6
08:40 1016 30 846 24.98 14.3 57.8 53 5.1 41.1
08:45 1016 30 846 24.98 13.6 56.5 53 4.3 39.8
08:50 1016 30 846 24.98 14.5 58.1 51 4.5 40
08:55 1016 30 846 24.98 14.7 58.5 51 4.7 40.5
09:00 1016 30 846 24.98 15.1 59.1 49 4.7 40.4
09:05 1016 30 846 24.98 14.5 58 54 5.5 41.8
09:10 1016 30 846 24.98 13.7 56.7 54 4.6 40.3
09:15 1016 30 846 24.98 13.8 56.9 52 4.3 39.8
09:20 1016 30 846 24.98 14.9 58.9 50 4.6 40.3
09:25 1016 30 846 24.98 15.5 59.8 47 4.3 39.7
09:30 1016 30 846 24.98 15.6 60.1 48 4.8 40.6
09:35 1016 30 845 24.95 15.2 59.4 48 4.5 40.1
09:40 1016 30 845 24.95 16.1 61 46 4.5 40
09:45 1016 30 845 24.95 16 60.9 47 4.7 40.5
09:50 1016 30 845 24.95 15.3 59.6 48 4.5 40
09:55 1016 30 845 24.95 15.8 60.4 49 5.1 41.3
10:00 1016 30 845 24.95 15.5 59.8 46 4.1 39.4
10:05 1016 30 845 24.95 15.5 59.9 47 4.3 39.7
10:10 1016 30 845 24.95 16.2 61.1 45 4.3 39.8
10:15 1016 30 845 24.95 15.6 60.1 48 4.7 40.4
10:20 1016 30 845 24.95 15.3 59.6 49 4.8 40.6
10:25 1016 30 845 24.95 15.3 59.5 45 3.4 38.1
10:30 1016 30 845 24.95 16.2 61.2 47 4.9 40.8
10:35 1016 30 845 24.95 15.3 59.5 47 4.1 39.4
10:40 1016 30 845 24.95 16.1 60.9 42 3.2 37.8
10:45 1016 30 845 24.95 16.2 61.2 44 4.1 39.3
10:50 1016 30 845 24.95 16.1 61 43 3.7 38.7
10:55 1016 30 845 24.95 16.2 61.1 43 3.8 38.8
11:00 1016 30 845 24.95 16.5 61.7 40 3 37.4
11:05 1016 30 845 24.95 16.6 61.9 38 2.2 36
11:10 1016 30 845 24.95 17.7 63.8 40 4 39.2
11:15 1016 30 845 24.95 18 64.4 40 4.2 39.6
11:20 1016 30 845 24.95 17.8 64 39 3.7 38.6
11:25 1016 30 845 24.95 18.6 65.4 36 3.3 38
11:30 1015 29.97 845 24.95 18.7 65.7 37 4 39.2
11:35 1015 29.97 845 24.95 18.5 65.2 38 4.2 39.5
11:40 1015 29.97 845 24.95 17.6 63.7 41 4.2 39.5
11:45 1015 29.97 845 24.95 16.7 62.1 41 3.4 38.1
11:50 1015 29.97 844 24.92 17.9 64.3 38 3.6 38.5
11:55 1015 29.97 844 24.92 18.9 66.1 35 3.3 38
12:00 1015 29.97 844 24.92 19.3 66.7 36 4.2 39.5
12:05 1015 29.97 844 24.92 19.3 66.7 36 4.2 39.5
12:10 1015 29.97 844 24.92 19.4 66.9 38 4.7 40.5
12:15 1015 29.97 844 24.92 18.4 65.2 39 4.4 39.9
12:20 1015 29.97 844 24.92 19.7 67.5 36 4.3 39.8
12:25 1015 29.97 844 24.92 19.8 67.7 37 4.8 40.7
12:30 1015 29.97 844 24.92 19.1 66.4 38 4.6 40.3
12:35 1015 29.97 844 24.92 18 64.4 41 4.7 40.4
12:40 1015 29.97 844 24.92 17.4 63.3 44 5 41
12:45 1015 29.97 844 24.92 17.6 63.7 42 4.5 40.2
12:50 1015 29.97 844 24.92 18.3 64.9 41 5 41
12:55 1015 29.97 844 24.92 17.7 63.9 42 4.6 40.3
13:00 1015 29.97 844 24.92 17.5 63.4 41 4.3 39.7
13:05 1015 29.97 844 24.92 16.2 61.2 44 4 39.2
13:10 1015 29.97 844 24.92 15.9 60.5 46 4.2 39.6
13:15 1015 29.97 844 24.92 15.7 60.3 47 4.7 40.4
13:20 1015 29.97 844 24.92 15.7 60.3 47 4.5 40.1
13:25 1015 29.97 844 24.92 15.4 59.6 47 4.3 39.7
13:30 1015 29.97 844 24.92 15 59.1 51 5 41
13:35 1015 29.97 844 24.92 14.8 58.7 54 5.6 42.1
13:40 1015 29.97 844 24.92 14.9 58.9 57 6.5 43.7
13:45 1015 29.97 844 24.92 14.6 58.3 57 6.3 43.3
13:50 1015 29.97 844 24.92 14.6 58.4 56 6 42.7
13:55 1015 29.97 844 24.92 14.6 58.2 56 6 42.8
14:00 1015 29.97 844 24.92 14.7 58.4 60 7 44.5
14:05 1015 29.97 844 24.92 14.8 58.7 58 6.6 43.9
14:10 1015 29.97 844 24.92 15 59 56 6.3 43.3
14:15 1015 29.97 844 24.92 14.9 58.7 54 5.7 42.2
14:20 1015 29.97 844 24.92 14.7 58.4 57 6.2 43.2
14:25 1015 29.97 844 24.92 15 58.9 54 5.9 42.6
14:30 1015 29.97 844 24.92 15.1 59.2 54 5.9 42.7
14:35 1015 29.97 844 24.92 15.1 59.1 52 5.4 41.8
14:40 1015 29.97 844 24.92 15.3 59.6 52 5.6 42
14:45 1015 29.97 844 24.92 15.7 60.3 48 4.9 40.8
14:50 1015 29.97 844 24.92 16.3 61.4 48 5.3 41.5
14:55 1014 29.94 844 24.92 17.3 63.1 45 5.4 41.7
15:00 1014 29.94 844 24.92 17.4 63.3 43 4.7 40.4
15:05 1014 29.94 844 24.92 18.1 64.6 40 4.5 40.1
15:10 1015 29.97 844 24.92 18.2 64.7 40 4.3 39.8
15:15 1015 29.97 844 24.92 17.7 63.9 40 3.9 39.1
15:20 1015 29.97 844 24.92 17.4 63.3 39 3.2 37.8
15:25 1015 29.97 844 24.92 17.1 62.7 37 2.4 36.2
15:30 1015 29.97 844 24.92 17.1 62.7 38 2.8 37.1
15:35 1015 29.97 844 24.92 17 62.6 43 4.4 40
15:40 1015 29.97 844 24.92 16.8 62.2 43 4.3 39.8
15:45 1015 29.97 844 24.92 16.3 61.3 43 3.9 39.1
15:50 1015 29.97 844 24.92 16 60.8 43 3.4 38.1
15:55 1015 29.97 844 24.92 16.3 61.3 42 3.4 38.2
16:00 1015 29.97 844 24.92 16.1 61 41 3.1 37.6
16:05 1015 29.97 844 24.92 16.5 61.6 40 3 37.5
16:10 1015 29.97 844 24.92 16.7 62.1 41 3.5 38.3
16:15 1015 29.97 844 24.92 16.8 62.2 41 3.6 38.4
16:20 1015 29.97 844 24.92 17.6 63.6 40 4 39.2
16:25 1015 29.97 844 24.92 17.9 64.3 38 3.7 38.6
16:30 1015 29.97 844 24.92 18.3 65 40 4.5 40.1
16:35 1015 29.97 844 24.92 18.2 64.8 38 3.9 39
16:40 1015 29.97 844 24.92 17.8 64 51 7.6 45.7
16:45 1015 29.97 844 24.92 17.4 63.3 45 5.6 42.1
16:50 1015 29.97 844 24.92 16.4 61.5 46 4.9 40.9
16:55 1015 29.97 844 24.92 15.9 60.6 57 7.6 45.7
17:00 1015 29.97 844 24.92 15.2 59.3 61 7.9 46.1
17:05 1015 29.97 844 24.92 14.3 57.8 63 7.5 45.4
17:10 1015 29.97 844 24.92 14.1 57.3 68 8.2 46.8
17:15 1015 29.97 844 24.92 14.1 57.3 65 7.6 45.7
17:20 1015 29.97 844 24.92 14 57.3 67 8 46.3
17:25 1015 29.97 844 24.92 14.1 57.3 66 7.8 46.1
17:30 1015 29.97 844 24.92 14.1 57.4 64 7.5 45.6
17:35 1015 29.97 844 24.92 14.2 57.5 71 9 48.2
17:40 1015 29.97 844 24.92 13.8 56.8 57 5.4 41.8
17:45 1015 29.97 844 24.92 14.3 57.8 63 7.5 45.4
17:50 1015 29.97 844 24.92 14.2 57.6 61 7 44.6
17:55 1015 29.97 844 24.92 13.9 57.1 70 8.6 47.5
18:00 1015 29.97 844 24.92 13.5 56.4 67 7.6 45.6
18:05 1015 29.97 844 24.92 13.7 56.6 66 7.4 45.3
18:10 1015 29.97 844 24.92 14 57.2 62 6.9 44.4
18:15 1015 29.97 844 24.92 14 57.3 59 6.3 43.3
18:20 1015 29.97 844 24.92 14 57.1 64 7.4 45.4
18:25 1015 29.97 844 24.92 13.7 56.7 62 6.7 44
18:30 1015 29.97 844 24.92 13.5 56.2 63 6.7 44.1
18:35 1015 29.97 844 24.92 13.3 55.9 63 6.3 43.4
18:40 1015 29.97 844 24.92 13.2 55.7 66 7 44.5
18:45 1015 29.97 844 24.92 12.9 55.3 64 6.4 43.5
18:50 1015 29.97 844 24.92 12.7 54.9 65 6.3 43.3
18:55 1015 29.97 845 24.95 12.6 54.6 65 6.2 43.2
19:00 1016 30 845 24.95 12.4 54.4 67 6.6 43.8
19:05 1016 30 845 24.95 12.3 54.2 67 6.4 43.6
19:10 1016 30 845 24.95 12.2 53.9 67 6.3 43.3
19:15 1016 30 845 24.95 12 53.6 68 6.3 43.3
19:20 1016 30 845 24.95 11.9 53.4 67 6 42.9
19:25 1016 30 845 24.95 11.9 53.3 67 6.1 42.9
19:30 1016 30 845 24.95 11.8 53.2 67 6 42.8
19:35 1016 30 845 24.95 11.7 53 67 5.7 42.3
19:40 1016 30 845 24.95 11.6 52.8 68 6 42.8
19:45 1016 30 845 24.95 11.5 52.6 66 5.3 41.5
19:50 1016 30 845 24.95 11.4 52.6 65 5.2 41.3
19:55 1016 30 845 24.95 11.4 52.4 64 4.9 40.8
20:00 1016 30 845 24.95 11.3 52.3 65 4.9 40.8
20:05 1016 30 845 24.95 11.3 52.3 64 4.8 40.6
20:10 1016 30 845 24.95 11.2 52.2 64 4.7 40.5
20:15 1016 30 845 24.95 11.2 52.1 65 4.8 40.7
20:20 1016 30 845 24.95 11 51.8 65 4.8 40.6
20:25 1016 30 845 24.95 11 51.7 63 4.3 39.8
20:30 1016 30 845 24.95 11.1 51.9 64 4.5 40.1
20:35 1016 30 845 24.95 11.1 52 64 4.5 40.1
20:40 1016 30 845 24.95 11.1 52 62 4.2 39.5
20:45 1016 30 845 24.95 11.2 52.2 63 4.5 40.1
20:50 1016 30 845 24.95 11.1 51.9 63 4.4 39.9
20:55 1016 30 845 24.95 11 51.8 63 4.3 39.8
21:00 1016 30 845 24.95 11 51.8 62 4.1 39.4
21:05 1016 30 845 24.95 11.1 51.9 62 4.2 39.5
21:10 1016 30 845 24.95 11.1 52 62 4.1 39.3
21:15 1016 30 845 24.95 11.3 52.3 60 3.9 39.1
21:20 1016 30 845 24.95 11.3 52.3 61 4 39.2
21:25 1016 30 845 24.95 11.1 52 62 4.2 39.6
21:30 1016 30 845 24.95 10.7 51.3 64 4.3 39.7
21:35 1016 30 845 24.95 10.4 50.7 65 4.2 39.5
21:40 1016 30 845 24.95 10.2 50.3 65 4 39.3
21:45 1016 30 845 24.95 10 50.1 67 4.1 39.4
21:50 1016 30 845 24.95 9.9 49.7 67 4.1 39.4
21:55 1016 30 845 24.95 9.7 49.4 67 3.9 39
22:00 1016 30 845 24.95 9.7 49.5 67 3.9 39.1
22:05 1016 30 845 24.95 9.7 49.4 67 3.9 39.1
22:10 1016 30 845 24.95 9.6 49.3 69 4.1 39.4
22:15 1016 30 845 24.95 9.3 48.7 70 4 39.3
22:20 1016 30 845 24.95 9.2 48.6 69 4 39.1
22:25 1016 30 845 24.95 9.3 48.8 69 4 39.2
22:30 1016 30 845 24.95 9.4 49 68 3.9 39
22:35 1016 30 845 24.95 9.5 49.2 68 4 39.3
22:40 1016 30 845 24.95 9.4 49 69 4.1 39.3
22:45 1016 30 845 24.95 9.3 48.8 69 3.9 39.1
22:50 1016 30 845 24.95 9.4 49 68 3.8 38.9
22:55 1016 30 845 24.95 9.4 49 69 4 39.2
23:00 1016 30 846 24.98 9.2 48.6 69 3.9 39.1
23:05 1016 30 846 24.98 9.3 48.8 69 3.9 39
23:10 1016 30 846 24.98 9.6 49.2 68 4 39.2
23:15 1016 30 846 24.98 9.7 49.4 68 4.2 39.5
23:20 1017 30.03 846 24.98 9.8 49.6 69 4.3 39.8
23:25 1016 30 846 24.98 9.8 49.6 70 4.6 40.3
23:30 1016 30 846 24.98 9.6 49.3 71 4.7 40.4
23:35 1016 30 846 24.98 9.6 49.2 72 4.8 40.6
23:40 1016 30 846 24.98 9.6 49.3 72 4.8 40.7
23:45 1016 30 846 24.98 9.6 49.3 73 5 40.9
23:50 1016 30 846 24.98 9.6 49.2 73 5 40.9
23:55 1017 30.03 846 24.98 9.5 49.1 74 5.1 41.1
24:00 1017 30.03 846 24.98 9.4 48.9 74 5.1 41.1